createdAt,value
2023-01-19T00:01:38.511Z,10.57
2023-01-19T00:04:05.244Z,11.20
2023-01-19T00:06:31.767Z,10.50
2023-01-19T00:08:58.977Z,9.40
2023-01-19T00:11:25.295Z,10.82
2023-01-19T00:13:51.898Z,9.63
2023-01-19T00:16:19.107Z,10.60
2023-01-19T00:18:46.097Z,9.43
2023-01-19T00:21:14.661Z,9.55
2023-01-19T00:23:40.960Z,10.05
2023-01-19T00:26:08.635Z,10.40
2023-01-19T00:28:34.927Z,10.73
2023-01-19T00:31:01.153Z,9.27
2023-01-19T00:33:27.569Z,9.93
2023-01-19T00:35:57.027Z,9.65
2023-01-19T00:38:23.327Z,9.95
2023-01-19T00:40:50.074Z,8.90
2023-01-19T00:43:16.392Z,10.05
2023-01-19T00:45:42.679Z,9.65
2023-01-19T00:48:09.007Z,10.05
2023-01-19T00:50:35.267Z,9.55
2023-01-19T00:53:02.068Z,9.10
2023-01-19T00:55:29.196Z,8.90
2023-01-19T00:57:55.611Z,9.35
2023-01-19T01:00:22.289Z,8.93
2023-01-19T01:02:49.713Z,8.60
2023-01-19T01:05:16.428Z,10.00
2023-01-19T01:07:47.084Z,10.02
2023-01-19T01:10:13.341Z,9.13
2023-01-19T01:12:39.648Z,9.65
2023-01-19T01:15:10.119Z,8.52
2023-01-19T01:17:36.513Z,9.68
2023-01-19T01:20:04.856Z,6.70
2023-01-19T01:22:31.304Z,6.53
2023-01-19T01:24:57.780Z,5.72
2023-01-19T01:27:24.070Z,6.45
2023-01-19T01:29:50.359Z,6.32
2023-01-19T01:32:17.375Z,4.90
2023-01-19T01:34:43.872Z,4.47
2023-01-19T01:37:10.108Z,5.40
2023-01-19T01:39:36.569Z,5.15
2023-01-19T01:42:03.912Z,3.85
2023-01-19T01:44:52.070Z,3.20
2023-01-19T01:47:30.809Z,2.75
2023-01-19T01:50:06.297Z,2.72
2023-01-19T01:52:34.203Z,2.10
2023-01-19T01:55:02.450Z,1.75
2023-01-19T01:57:29.724Z,2.08
2023-01-19T01:59:57.359Z,1.40
2023-01-19T02:02:44.483Z,1.30
2023-01-19T02:05:12.969Z,1.60
2023-01-19T02:08:00.784Z,1.70
2023-01-19T02:10:45.658Z,1.48
2023-01-19T02:13:19.682Z,2.05
2023-01-19T02:15:46.647Z,1.52
2023-01-19T02:18:14.035Z,1.60
2023-01-19T02:20:42.295Z,1.42
2023-01-19T02:23:15.645Z,1.58
2023-01-19T02:25:41.958Z,1.50
2023-01-19T02:28:08.555Z,1.40
2023-01-19T02:30:35.625Z,1.58
2023-01-19T02:33:02.212Z,1.70
2023-01-19T02:35:28.691Z,1.00
2023-01-19T02:37:54.955Z,0.90
2023-01-19T02:40:24.302Z,0.95
2023-01-19T02:42:51.962Z,0.77
2023-01-19T02:45:20.578Z,1.42
2023-01-19T02:47:47.920Z,1.23
2023-01-19T02:50:32.874Z,0.80
2023-01-19T02:53:03.373Z,1.20
2023-01-19T02:55:31.332Z,0.88
2023-01-19T02:58:07.209Z,1.63
2023-01-19T03:00:45.572Z,0.70
2023-01-19T03:03:30.642Z,1.25
2023-01-19T03:05:56.968Z,1.08
2023-01-19T03:08:33.845Z,1.08
2023-01-19T03:11:04.868Z,0.77
2023-01-19T03:13:52.402Z,0.65
2023-01-19T03:16:18.784Z,1.05
2023-01-19T03:18:48.014Z,0.90
2023-01-19T03:21:16.063Z,0.60
2023-01-19T03:23:44.015Z,0.68
2023-01-19T03:26:12.143Z,0.80
2023-01-19T03:28:40.555Z,0.75
2023-01-19T03:31:09.529Z,0.40
2023-01-19T03:33:37.280Z,0.60
2023-01-19T03:36:08.644Z,0.50
2023-01-19T03:38:37.059Z,0.32
2023-01-19T03:41:06.852Z,0.60
2023-01-19T03:43:35.103Z,1.17
2023-01-19T03:46:02.805Z,0.40
2023-01-19T03:48:29.112Z,0.75
2023-01-19T03:50:55.448Z,0.98
2023-01-19T03:53:22.752Z,0.65
2023-01-19T03:55:50.711Z,0.50
2023-01-19T03:58:17.257Z,1.10
2023-01-19T04:00:43.644Z,0.63
2023-01-19T04:03:13.998Z,0.55
2023-01-19T04:05:40.363Z,0.68
2023-01-19T04:08:06.718Z,0.77
2023-01-19T04:10:33.346Z,0.60
2023-01-19T04:13:00.874Z,0.65
2023-01-19T04:15:28.019Z,0.68
2023-01-19T04:17:54.801Z,0.85
2023-01-19T04:20:21.735Z,0.75
2023-01-19T04:22:49.008Z,0.43
2023-01-19T04:25:15.656Z,0.73
2023-01-19T04:27:41.936Z,0.60
2023-01-19T04:30:09.868Z,0.43
2023-01-19T04:32:36.263Z,0.52
2023-01-19T04:35:02.616Z,0.75
2023-01-19T04:37:28.880Z,0.60
2023-01-19T04:39:55.163Z,0.50
2023-01-19T04:42:21.679Z,0.57
2023-01-19T04:44:47.907Z,0.90
2023-01-19T04:47:14.424Z,0.90
2023-01-19T04:49:40.821Z,1.00
2023-01-19T04:52:07.387Z,0.70
2023-01-19T04:54:33.760Z,1.00
2023-01-19T04:57:00.168Z,1.10
2023-01-19T04:59:26.483Z,1.63
2023-01-19T05:01:53.060Z,1.25
2023-01-19T05:04:19.603Z,1.10
2023-01-19T05:06:45.860Z,1.10
2023-01-19T05:09:14.092Z,0.88
2023-01-19T05:11:40.445Z,0.90
2023-01-19T05:14:06.911Z,1.75
2023-01-19T05:16:34.620Z,1.35
2023-01-19T05:19:00.888Z,0.85
2023-01-19T05:21:27.128Z,0.90
2023-01-19T05:23:53.407Z,0.85
2023-01-19T05:26:19.703Z,1.25
2023-01-19T05:28:45.975Z,1.52
2023-01-19T05:31:12.392Z,1.13
2023-01-19T05:33:38.716Z,1.95
2023-01-19T05:36:05.081Z,2.25
2023-01-19T05:38:35.655Z,1.17
2023-01-19T05:41:02.368Z,1.52
2023-01-19T05:43:28.665Z,1.60
2023-01-19T05:45:55.075Z,1.85
2023-01-19T05:48:21.319Z,1.85
2023-01-19T05:50:49.379Z,2.10
2023-01-19T05:53:16.439Z,2.08
2023-01-19T05:55:42.974Z,1.02
2023-01-19T05:58:09.214Z,2.13
2023-01-19T06:00:35.488Z,1.27
2023-01-19T06:03:02.615Z,1.60
2023-01-19T06:05:29.669Z,1.40
2023-01-19T06:07:57.091Z,1.38
2023-01-19T06:10:23.375Z,1.77
2023-01-19T06:12:49.814Z,2.45
2023-01-19T06:15:16.426Z,2.30
2023-01-19T06:17:42.897Z,2.15
2023-01-19T06:20:09.591Z,1.40
2023-01-19T06:22:35.971Z,1.70
2023-01-19T06:25:02.332Z,1.92
2023-01-19T06:27:28.559Z,2.17
2023-01-19T06:29:54.813Z,1.30
2023-01-19T06:32:21.108Z,1.90
2023-01-19T06:34:47.476Z,2.22
2023-01-19T06:37:14.839Z,2.78
2023-01-19T06:39:42.233Z,3.58
2023-01-19T06:42:08.650Z,2.50
2023-01-19T06:44:34.969Z,1.88
2023-01-19T06:47:15.670Z,2.45
2023-01-19T06:49:42.366Z,3.45
2023-01-19T06:52:09.521Z,1.88
2023-01-19T06:54:35.776Z,2.10
2023-01-19T06:57:02.828Z,2.47
2023-01-19T06:59:29.720Z,2.22
2023-01-19T07:01:56.894Z,2.05
2023-01-19T07:04:23.264Z,2.10
2023-01-19T07:06:49.955Z,2.13
2023-01-19T07:09:17.106Z,2.35
2023-01-19T07:11:43.415Z,3.30
2023-01-19T07:14:09.667Z,3.80
2023-01-19T07:16:36.059Z,3.13
2023-01-19T07:19:02.367Z,3.13
2023-01-19T07:21:29.368Z,3.80
2023-01-19T07:23:56.067Z,3.60
2023-01-19T07:26:24.885Z,5.10
2023-01-19T07:28:53.961Z,3.67
2023-01-19T07:31:20.475Z,3.28
2023-01-19T07:33:46.819Z,3.08
2023-01-19T07:36:13.517Z,3.13
2023-01-19T07:38:39.855Z,3.53
2023-01-19T07:41:07.663Z,2.80
2023-01-19T07:43:34.334Z,2.88
2023-01-19T07:46:01.400Z,3.63
2023-01-19T07:48:28.067Z,2.63
2023-01-19T07:50:58.773Z,3.22
2023-01-19T07:55:54.724Z,2.42
2023-01-19T07:58:21.006Z,3.33
2023-01-19T08:00:47.291Z,4.20
2023-01-19T08:03:13.615Z,3.42
2023-01-19T08:05:39.940Z,3.40
2023-01-19T08:08:07.774Z,4.53
2023-01-19T08:10:34.683Z,4.38
2023-01-19T08:13:01.260Z,4.75
2023-01-19T08:15:27.757Z,3.85
2023-01-19T08:17:54.923Z,4.03
2023-01-19T08:20:23.201Z,4.72
2023-01-19T08:22:49.849Z,4.00
2023-01-19T08:25:16.210Z,3.25
2023-01-19T08:27:42.522Z,4.63
2023-01-19T08:30:09.151Z,3.65
2023-01-19T08:32:35.979Z,4.25
2023-01-19T08:35:02.794Z,2.75
2023-01-19T08:37:29.087Z,4.15
2023-01-19T08:39:55.423Z,4.05
2023-01-19T08:42:21.667Z,3.97
2023-01-19T08:44:57.539Z,3.30
2023-01-19T08:47:24.267Z,5.45
2023-01-19T08:49:50.632Z,3.72
2023-01-19T08:52:16.947Z,3.20
2023-01-19T08:54:43.253Z,3.85
2023-01-19T08:57:09.564Z,3.08
2023-01-19T08:59:36.839Z,3.30
2023-01-19T09:02:03.243Z,3.47
2023-01-19T09:04:29.637Z,3.70
2023-01-19T09:06:55.940Z,2.78
2023-01-19T09:09:22.260Z,3.83
2023-01-19T09:11:49.036Z,2.40
2023-01-19T09:14:15.308Z,3.08
2023-01-19T09:16:41.901Z,2.85
2023-01-19T09:19:09.096Z,2.25
2023-01-19T09:21:35.399Z,2.58
2023-01-19T09:24:01.689Z,2.17
2023-01-19T09:26:28.146Z,1.85
2023-01-19T09:28:54.505Z,2.22
2023-01-19T09:31:21.323Z,3.05
2023-01-19T09:33:47.837Z,2.28
2023-01-19T09:36:14.192Z,2.15
2023-01-19T09:38:40.667Z,2.90
2023-01-19T09:41:17.427Z,2.92
2023-01-19T09:44:01.677Z,2.75
2023-01-19T09:46:34.279Z,2.85
2023-01-19T09:49:06.593Z,4.07
2023-01-19T09:51:34.886Z,3.38
2023-01-19T09:54:16.312Z,3.50
2023-01-19T09:56:43.376Z,4.05
2023-01-19T09:59:24.507Z,3.20
2023-01-19T10:01:50.811Z,3.20
2023-01-19T10:04:29.334Z,3.10
2023-01-19T10:07:20.124Z,2.55
2023-01-19T10:12:13.916Z,2.50
2023-01-19T10:14:43.263Z,3.15
2023-01-19T10:17:19.196Z,4.72
2023-01-19T10:19:47.494Z,2.47
2023-01-19T10:22:21.662Z,2.58
2023-01-19T10:24:51.198Z,2.60
2023-01-19T10:27:18.381Z,2.67
2023-01-19T10:29:45.613Z,2.30
2023-01-19T10:32:12.439Z,2.25
2023-01-19T10:34:38.748Z,2.03
2023-01-19T10:37:15.901Z,2.10
2023-01-19T10:39:42.714Z,2.33
2023-01-19T10:42:12.556Z,2.00
2023-01-19T10:44:39.094Z,1.92
2023-01-19T10:47:06.471Z,2.20
2023-01-19T10:49:36.629Z,2.22
2023-01-19T10:52:03.412Z,1.88
2023-01-19T10:54:31.055Z,2.70
2023-01-19T10:56:58.482Z,1.60
2023-01-19T10:59:43.691Z,2.20
2023-01-19T11:02:20.756Z,1.95
2023-01-19T11:04:50.128Z,2.22
2023-01-19T11:07:34.943Z,2.30
2023-01-19T11:10:16.335Z,1.60
2023-01-19T11:12:44.563Z,1.27
2023-01-19T11:15:15.666Z,2.28
2023-01-19T11:17:44.335Z,3.72
2023-01-19T11:20:18.551Z,2.63
2023-01-19T11:22:44.889Z,2.08
2023-01-19T11:25:21.857Z,2.17
2023-01-19T11:27:51.828Z,1.92
2023-01-19T11:30:20.923Z,2.08
2023-01-19T11:32:49.141Z,2.20
2023-01-19T11:35:33.870Z,2.00
2023-01-19T11:38:11.952Z,2.10
2023-01-19T11:40:38.487Z,2.72
2023-01-19T11:43:05.008Z,2.95
2023-01-19T11:45:32.732Z,1.75
2023-01-19T11:48:03.008Z,2.50
2023-01-19T11:50:31.333Z,2.88
2023-01-19T11:53:16.326Z,5.70
2023-01-19T11:55:45.417Z,2.97
2023-01-19T11:58:16.162Z,2.72
2023-01-19T12:00:48.408Z,2.25
2023-01-19T12:03:17.583Z,1.48
2023-01-19T12:05:48.351Z,1.40
2023-01-19T12:08:18.593Z,2.35
2023-01-19T12:13:24.893Z,2.00
2023-01-19T12:15:54.573Z,2.10
2023-01-19T12:18:22.585Z,1.70
2023-01-19T12:20:50.637Z,1.52
2023-01-19T12:23:26.066Z,1.77
2023-01-19T12:25:54.732Z,1.20
2023-01-19T12:28:22.915Z,1.80
2023-01-19T12:30:52.098Z,1.90
2023-01-19T12:33:21.181Z,1.47
2023-01-19T12:35:54.857Z,1.60
2023-01-19T12:38:33.432Z,1.50
2023-01-19T12:41:15.941Z,1.77
2023-01-19T12:43:42.212Z,1.55
2023-01-19T12:46:29.412Z,1.52
2023-01-19T12:49:03.026Z,0.98
2023-01-19T12:51:29.324Z,1.67
2023-01-19T12:53:57.825Z,1.50
2023-01-19T12:56:30.037Z,1.45
2023-01-19T12:58:56.505Z,1.63
2023-01-19T13:01:24.810Z,1.92
2023-01-19T13:03:58.792Z,1.90
2023-01-19T13:06:43.595Z,1.60
2023-01-19T13:09:28.015Z,1.80
2023-01-19T13:12:14.611Z,1.92
2023-01-19T13:14:42.237Z,1.73
2023-01-19T13:17:27.264Z,1.75
2023-01-19T13:20:05.584Z,1.55
2023-01-19T13:22:50.066Z,1.20
2023-01-19T13:25:30.688Z,2.10
2023-01-19T13:27:57.207Z,2.15
2023-01-19T13:30:26.978Z,0.88
2023-01-19T13:32:57.412Z,1.30
2023-01-19T13:37:50.944Z,1.77
2023-01-19T13:40:32.279Z,1.42
2023-01-19T13:42:58.611Z,1.20
2023-01-19T13:45:29.932Z,1.67
2023-01-19T13:47:58.116Z,1.33
2023-01-19T13:50:29.149Z,1.10
2023-01-19T13:52:56.693Z,1.52
2023-01-19T13:55:23.776Z,1.67
2023-01-19T13:57:50.654Z,1.20
2023-01-19T14:00:17.124Z,1.33
2023-01-19T14:02:55.552Z,1.40
2023-01-19T14:05:23.833Z,1.02
2023-01-19T14:08:13.361Z,1.10
2023-01-19T14:10:42.525Z,1.65
2023-01-19T14:13:19.352Z,1.08
2023-01-19T14:15:46.849Z,0.90
2023-01-19T14:18:16.195Z,1.27
2023-01-19T14:21:01.373Z,0.95
2023-01-19T14:23:36.557Z,1.15
2023-01-19T14:26:02.802Z,1.10
2023-01-19T14:28:35.255Z,1.63
2023-01-19T14:31:03.026Z,1.50
2023-01-19T14:33:33.156Z,0.95
2023-01-19T14:36:08.505Z,1.10
2023-01-19T14:38:34.875Z,0.90
2023-01-19T14:41:01.281Z,0.80
2023-01-19T14:43:29.615Z,1.17
2023-01-19T14:45:56.081Z,1.20
2023-01-19T14:48:22.547Z,1.10
2023-01-19T14:51:02.373Z,1.30
2023-01-19T14:53:31.925Z,1.70
2023-01-19T14:56:00.308Z,1.55
2023-01-19T14:58:27.418Z,2.13
2023-01-19T15:00:56.542Z,1.92
2023-01-19T15:03:26.839Z,1.40
2023-01-19T15:06:00.006Z,1.30
2023-01-19T15:08:28.726Z,1.05
2023-01-19T15:10:55.592Z,1.15
2023-01-19T15:13:23.080Z,1.30
2023-01-19T15:15:50.216Z,1.63
2023-01-19T15:18:17.553Z,2.03
2023-01-19T15:20:43.845Z,2.17
2023-01-19T15:23:10.487Z,3.35
2023-01-19T15:25:39.318Z,3.47
2023-01-19T15:28:10.468Z,3.92
2023-01-19T15:30:36.775Z,3.05
2023-01-19T15:33:03.099Z,4.55
2023-01-19T15:35:29.378Z,3.63
2023-01-19T15:37:55.662Z,2.50
2023-01-19T15:40:23.138Z,1.92
2023-01-19T15:42:49.945Z,2.13
2023-01-19T15:45:28.300Z,3.75
2023-01-19T15:47:54.603Z,3.30
2023-01-19T15:50:20.831Z,3.03
2023-01-19T15:52:47.145Z,3.28
2023-01-19T15:55:15.827Z,3.72
2023-01-19T15:57:42.148Z,3.53
2023-01-19T16:00:09.337Z,3.30
2023-01-19T16:02:36.029Z,3.70
2023-01-19T16:05:02.407Z,4.43
2023-01-19T16:07:28.749Z,4.68
2023-01-19T16:09:55.251Z,4.47
2023-01-19T16:12:21.547Z,3.75
2023-01-19T16:14:47.831Z,3.30
2023-01-19T16:17:14.131Z,3.40
2023-01-19T16:19:40.442Z,3.95
2023-01-19T16:22:06.734Z,3.42
2023-01-19T16:24:32.975Z,3.25
2023-01-19T16:27:00.436Z,4.15
2023-01-19T16:29:26.713Z,4.00
2023-01-19T16:31:52.966Z,4.03
2023-01-19T16:34:19.269Z,3.83
2023-01-19T16:36:45.831Z,3.70
2023-01-19T16:39:13.454Z,4.07
2023-01-19T16:41:40.171Z,3.80
2023-01-19T16:44:06.629Z,3.50
2023-01-19T16:46:35.054Z,2.67
2023-01-19T16:49:02.442Z,3.10
2023-01-19T16:51:28.790Z,4.03
2023-01-19T16:53:55.082Z,3.38
2023-01-19T16:56:21.384Z,3.97
2023-01-19T16:58:47.716Z,5.13
2023-01-19T17:01:16.092Z,10.25
2023-01-19T17:03:43.819Z,7.72
2023-01-19T17:06:10.773Z,6.20
2023-01-19T17:08:37.308Z,11.48
2023-01-19T17:11:10.597Z,10.85
2023-01-19T17:13:37.016Z,11.27
2023-01-19T17:16:03.921Z,8.77
2023-01-19T17:18:31.963Z,5.63
2023-01-19T17:21:02.168Z,6.10
2023-01-19T17:23:29.550Z,4.45
2023-01-19T17:25:56.608Z,5.20
2023-01-19T17:28:23.189Z,7.22
2023-01-19T17:30:51.316Z,7.45
2023-01-19T17:33:24.364Z,6.53
2023-01-19T17:35:50.765Z,8.45
2023-01-19T17:38:17.030Z,15.40
2023-01-19T17:40:43.406Z,17.10
2023-01-19T17:43:09.684Z,14.07
2023-01-19T17:45:36.364Z,8.70
2023-01-19T17:48:05.614Z,7.32
2023-01-19T17:50:34.460Z,5.15
2023-01-19T17:53:01.067Z,4.95
2023-01-19T17:55:27.414Z,4.60
2023-01-19T17:57:53.657Z,4.90
2023-01-19T18:00:20.070Z,6.15
2023-01-19T18:02:48.658Z,5.75
2023-01-19T18:05:15.046Z,7.05
2023-01-19T18:07:41.382Z,8.18
2023-01-19T18:10:08.219Z,9.10
2023-01-19T18:12:34.448Z,11.00
2023-01-19T18:15:00.689Z,11.13
2023-01-19T18:17:26.975Z,11.07
2023-01-19T18:19:54.643Z,10.68
2023-01-19T18:22:20.961Z,12.45
2023-01-19T18:24:48.927Z,32.17
2023-01-19T18:27:16.364Z,16.38
2023-01-19T18:29:42.988Z,14.57
2023-01-19T18:32:09.495Z,21.75
2023-01-19T18:34:35.931Z,16.40
2023-01-19T18:37:02.298Z,16.65
2023-01-19T18:39:30.881Z,15.10
2023-01-19T18:41:57.363Z,17.75
2023-01-19T18:44:23.606Z,15.02
2023-01-19T18:46:49.913Z,15.27
2023-01-19T18:49:16.258Z,15.73
2023-01-19T18:51:42.543Z,18.00
2023-01-19T18:54:09.694Z,16.77
2023-01-19T18:56:36.029Z,16.90
2023-01-19T18:59:02.652Z,18.45
2023-01-19T19:01:32.646Z,17.88
2023-01-19T19:03:59.494Z,15.43
2023-01-19T19:06:27.095Z,15.13
2023-01-19T19:08:54.481Z,14.85
2023-01-19T19:11:21.579Z,15.23
2023-01-19T19:13:51.392Z,14.93
2023-01-19T19:16:17.724Z,15.67
2023-01-19T19:18:44.122Z,16.92
2023-01-19T19:21:11.327Z,21.15
2023-01-19T19:23:38.229Z,21.67
2023-01-19T19:26:05.268Z,18.77
2023-01-19T19:28:31.599Z,16.65
2023-01-19T19:31:04.734Z,14.02
2023-01-19T19:33:31.063Z,11.23
2023-01-19T19:35:58.016Z,9.73
2023-01-19T19:38:24.461Z,8.68
2023-01-19T19:40:50.847Z,7.50
2023-01-19T19:43:17.132Z,6.47
2023-01-19T19:45:44.797Z,5.13
2023-01-19T19:48:11.079Z,5.18
2023-01-19T19:50:37.384Z,4.82
2023-01-19T19:53:03.679Z,4.50
2023-01-19T19:55:30.192Z,4.28
2023-01-19T19:57:56.751Z,3.28
2023-01-19T20:00:23.040Z,3.78
2023-01-19T20:02:50.479Z,3.05
2023-01-19T20:05:16.743Z,2.75
2023-01-19T20:07:46.997Z,2.35
2023-01-19T20:10:13.615Z,1.77
2023-01-19T20:12:40.055Z,1.50
2023-01-19T20:15:06.465Z,1.10
2023-01-19T20:17:32.772Z,1.30
2023-01-19T20:19:59.421Z,1.20
2023-01-19T20:22:25.874Z,1.33
2023-01-19T20:24:52.250Z,1.15
2023-01-19T20:27:18.657Z,1.25
2023-01-19T20:29:51.618Z,2.58
2023-01-19T20:32:18.023Z,4.10
2023-01-19T20:34:44.301Z,3.08
2023-01-19T20:37:10.912Z,3.72
2023-01-19T20:39:37.300Z,4.75
2023-01-19T20:42:04.915Z,4.50
2023-01-19T20:44:31.218Z,3.65
2023-01-19T20:46:57.597Z,2.75
2023-01-19T20:49:23.894Z,2.80
2023-01-19T20:51:51.933Z,2.53
2023-01-19T20:54:19.165Z,2.83
2023-01-19T20:56:45.591Z,2.50
2023-01-19T20:59:12.253Z,2.65
2023-01-19T21:01:39.022Z,2.67
2023-01-19T21:04:05.439Z,3.08
2023-01-19T21:06:31.704Z,3.08
2023-01-19T21:08:58.255Z,3.42
2023-01-19T21:11:24.887Z,3.45
2023-01-19T21:13:55.399Z,3.83
2023-01-19T21:16:22.854Z,2.85
2023-01-19T21:18:49.400Z,3.65
2023-01-19T21:21:29.473Z,4.90
2023-01-19T21:23:57.240Z,6.18
2023-01-19T21:26:23.683Z,5.65
2023-01-19T21:28:50.565Z,3.00
2023-01-19T21:31:17.127Z,4.15
2023-01-19T21:33:43.737Z,3.03
2023-01-19T21:36:10.758Z,2.67
2023-01-19T21:38:37.603Z,3.05
2023-01-19T21:41:07.937Z,2.70
2023-01-19T21:43:35.327Z,3.42
2023-01-19T21:46:29.445Z,2.85
2023-01-19T21:48:59.438Z,3.55
2023-01-19T21:51:26.249Z,3.60
2023-01-19T21:53:53.289Z,3.95
2023-01-19T21:56:19.679Z,3.90
2023-01-19T21:58:47.153Z,3.60
2023-01-19T22:01:13.959Z,3.42
2023-01-19T22:03:40.823Z,3.47
2023-01-19T22:06:07.913Z,3.50
2023-01-19T22:08:34.490Z,3.67
2023-01-19T22:11:07.539Z,3.75
2023-01-19T22:13:34.432Z,3.60
2023-01-19T22:16:04.277Z,3.38
2023-01-19T22:18:30.878Z,4.23
2023-01-19T22:21:06.399Z,5.15
2023-01-19T22:23:32.665Z,4.72
2023-01-19T22:25:59.510Z,3.90
2023-01-19T22:28:25.932Z,4.72
2023-01-19T22:30:52.298Z,5.05
2023-01-19T22:33:18.668Z,6.13
2023-01-19T22:35:44.896Z,5.47
2023-01-19T22:38:11.203Z,5.78
2023-01-19T22:40:38.076Z,5.43
2023-01-19T22:43:04.308Z,4.75
2023-01-19T22:45:30.761Z,5.45
2023-01-19T22:47:57.030Z,6.10
2023-01-19T22:50:23.317Z,5.32
2023-01-19T22:52:49.638Z,5.07
2023-01-19T22:55:16.265Z,4.07
2023-01-19T22:57:42.584Z,5.03
2023-01-19T23:00:09.425Z,3.80
2023-01-19T23:02:35.764Z,3.90
2023-01-19T23:05:02.026Z,4.20
2023-01-19T23:07:28.264Z,3.95
2023-01-19T23:09:54.636Z,4.55
2023-01-19T23:12:20.925Z,5.00
2023-01-19T23:14:47.236Z,4.85
2023-01-19T23:17:13.518Z,4.10
2023-01-19T23:19:39.767Z,4.20
2023-01-19T23:22:06.052Z,4.63
2023-01-19T23:24:32.396Z,4.00
2023-01-19T23:26:59.038Z,4.85
2023-01-19T23:29:25.273Z,4.97
2023-01-19T23:31:53.342Z,4.50
2023-01-19T23:34:19.645Z,4.75
2023-01-19T23:36:45.942Z,4.82
2023-01-19T23:39:14.261Z,5.20
2023-01-19T23:41:40.663Z,4.32
2023-01-19T23:44:07.196Z,4.88
2023-01-19T23:46:33.533Z,4.28
2023-01-19T23:48:59.923Z,4.03
2023-01-19T23:51:27.276Z,4.07
2023-01-19T23:53:53.728Z,4.82
2023-01-19T23:56:21.473Z,4.40
2023-01-19T23:58:48.595Z,4.38
